createdAt,value
2022-09-23T00:01:58.418Z,4.20
2022-09-23T00:04:25.837Z,4.20
2022-09-23T00:06:52.433Z,4.20
2022-09-23T00:09:19.014Z,4.10
2022-09-23T00:11:45.632Z,4.00
2022-09-23T00:14:12.481Z,3.90
2022-09-23T00:16:39.502Z,4.00
2022-09-23T00:19:06.555Z,4.00
2022-09-23T00:21:33.262Z,4.00
2022-09-23T00:23:59.905Z,4.00
2022-09-23T00:26:27.544Z,4.10
2022-09-23T00:28:54.190Z,3.90
2022-09-23T00:31:22.674Z,3.90
2022-09-23T00:33:53.632Z,4.00
2022-09-23T00:36:20.285Z,4.00
2022-09-23T00:38:46.969Z,4.10
2022-09-23T00:41:15.996Z,4.10
2022-09-23T00:43:46.872Z,4.10
2022-09-23T00:46:17.562Z,4.00
2022-09-23T00:48:44.754Z,3.90
2022-09-23T00:51:14.354Z,3.90
2022-09-23T00:53:41.279Z,4.00
2022-09-23T00:56:08.903Z,4.00
2022-09-23T00:58:37.430Z,4.00
2022-09-23T01:01:04.401Z,3.90
2022-09-23T01:03:31.220Z,3.90
2022-09-23T01:05:58.401Z,3.70
2022-09-23T01:08:26.762Z,3.70
2022-09-23T01:10:59.175Z,3.70
2022-09-23T01:13:32.356Z,3.70
2022-09-23T01:16:08.323Z,3.70
2022-09-23T01:18:39.190Z,3.70
2022-09-23T01:21:14.746Z,3.70
2022-09-23T01:24:02.428Z,3.70
2022-09-23T01:26:41.414Z,3.60
2022-09-23T01:29:17.679Z,3.50
2022-09-23T01:31:52.389Z,3.40
2022-09-23T01:34:24.176Z,3.40
2022-09-23T01:37:00.805Z,3.40
2022-09-23T01:39:46.319Z,3.40
2022-09-23T01:42:17.344Z,3.50
2022-09-23T01:44:51.809Z,3.50
2022-09-23T01:47:21.631Z,3.60
2022-09-23T01:49:48.217Z,3.60
2022-09-23T01:52:16.531Z,3.50
2022-09-23T01:55:03.403Z,3.50
2022-09-23T01:57:38.909Z,3.50
2022-09-23T02:00:09.564Z,3.40
2022-09-23T02:02:49.470Z,3.50
2022-09-23T02:05:25.965Z,3.50
2022-09-23T02:07:52.525Z,3.30
2022-09-23T02:10:28.172Z,3.30
2022-09-23T02:12:58.207Z,3.40
2022-09-23T02:15:26.312Z,3.30
2022-09-23T02:17:59.393Z,3.30
2022-09-23T02:20:28.629Z,3.40
2022-09-23T02:23:11.368Z,3.30
2022-09-23T02:25:45.041Z,3.30
2022-09-23T02:28:19.964Z,3.10
2022-09-23T02:30:50.616Z,3.10
2022-09-23T02:33:17.178Z,3.20
2022-09-23T02:35:55.364Z,3.20
2022-09-23T02:38:33.865Z,3.20
2022-09-23T02:41:06.545Z,3.20
2022-09-23T02:43:36.230Z,3.20
2022-09-23T02:46:04.134Z,3.20
2022-09-23T02:48:33.891Z,3.10
2022-09-23T02:51:02.283Z,3.10
2022-09-23T02:53:30.117Z,3.10
2022-09-23T02:55:56.703Z,3.20
2022-09-23T02:58:23.374Z,3.20
2022-09-23T03:01:05.996Z,3.20
2022-09-23T03:03:32.652Z,3.10
2022-09-23T03:06:02.106Z,3.00
2022-09-23T03:08:51.009Z,2.90
2022-09-23T03:11:17.795Z,2.90
2022-09-23T03:13:55.186Z,3.00
2022-09-23T03:16:43.537Z,3.10
2022-09-23T03:19:29.031Z,3.00
2022-09-23T03:22:08.361Z,3.00
2022-09-23T03:24:36.401Z,3.00
2022-09-23T03:27:05.261Z,3.10
2022-09-23T03:29:32.494Z,3.10
2022-09-23T03:31:59.843Z,3.10
2022-09-23T03:34:28.190Z,3.10
2022-09-23T03:37:02.753Z,3.10
2022-09-23T03:39:32.391Z,3.00
2022-09-23T03:42:01.605Z,2.90
2022-09-23T03:44:29.194Z,2.90
2022-09-23T03:46:59.609Z,2.90
2022-09-23T03:49:28.576Z,2.80
2022-09-23T03:51:56.006Z,2.80
2022-09-23T03:54:22.842Z,2.80
2022-09-23T03:56:49.689Z,2.80
2022-09-23T03:59:16.268Z,2.80
2022-09-23T04:01:43.363Z,2.80
2022-09-23T04:04:10.444Z,2.70
2022-09-23T04:06:37.215Z,2.60
2022-09-23T04:09:04.153Z,2.60
2022-09-23T04:11:30.788Z,2.60
2022-09-23T04:13:57.486Z,2.60
2022-09-23T04:16:24.793Z,2.50
2022-09-23T04:18:51.529Z,2.50
2022-09-23T04:21:18.212Z,2.50
2022-09-23T04:23:46.516Z,2.60
2022-09-23T04:26:13.536Z,2.50
2022-09-23T04:28:40.441Z,2.70
2022-09-23T04:31:08.141Z,2.70
2022-09-23T04:33:35.122Z,2.70
2022-09-23T04:36:01.902Z,2.70
2022-09-23T04:38:28.837Z,2.60
2022-09-23T04:40:55.475Z,2.60
2022-09-23T04:43:23.530Z,2.60
2022-09-23T04:46:06.760Z,2.60
2022-09-23T04:48:33.900Z,2.50
2022-09-23T04:51:04.119Z,2.40
2022-09-23T04:53:31.457Z,2.40
2022-09-23T04:56:05.536Z,2.40
2022-09-23T04:58:32.614Z,2.40
2022-09-23T05:01:07.598Z,2.30
2022-09-23T05:03:35.735Z,2.40
2022-09-23T05:06:02.523Z,2.40
2022-09-23T05:08:29.772Z,2.40
2022-09-23T05:11:00.837Z,2.50
2022-09-23T05:13:27.893Z,2.50
2022-09-23T05:16:01.556Z,2.60
2022-09-23T05:18:31.003Z,2.50
2022-09-23T05:20:58.000Z,2.50
2022-09-23T05:23:24.764Z,2.50
2022-09-23T05:26:01.713Z,2.40
2022-09-23T05:28:32.743Z,2.50
2022-09-23T05:31:06.861Z,2.60
2022-09-23T05:33:34.150Z,2.60
2022-09-23T05:36:01.022Z,2.70
2022-09-23T05:38:28.610Z,2.70
2022-09-23T05:40:56.401Z,2.60
2022-09-23T05:43:23.076Z,2.70
2022-09-23T05:45:49.640Z,2.70
2022-09-23T05:48:16.530Z,2.70
2022-09-23T05:50:50.535Z,2.60
2022-09-23T05:53:17.764Z,2.60
2022-09-23T05:55:45.380Z,2.70
2022-09-23T05:58:12.391Z,2.70
2022-09-23T06:00:40.604Z,2.80
2022-09-23T06:03:13.906Z,2.90
2022-09-23T06:05:40.543Z,3.00
2022-09-23T06:08:08.076Z,3.10
2022-09-23T06:10:38.539Z,3.30
2022-09-23T06:13:05.282Z,3.40
2022-09-23T06:15:32.616Z,3.50
2022-09-23T06:17:59.703Z,3.60
2022-09-23T06:20:26.426Z,3.70
2022-09-23T06:22:55.484Z,3.90
2022-09-23T06:25:22.990Z,4.00
2022-09-23T06:27:54.361Z,4.10
2022-09-23T06:30:21.463Z,4.30
2022-09-23T06:32:49.793Z,4.40
2022-09-23T06:35:26.192Z,4.60
2022-09-23T06:37:54.772Z,4.80
2022-09-23T06:40:22.391Z,5.00
2022-09-23T06:42:52.393Z,5.20
2022-09-23T06:45:19.071Z,5.40
2022-09-23T06:47:45.775Z,5.50
2022-09-23T06:50:12.571Z,5.60
2022-09-23T06:52:39.303Z,5.70
2022-09-23T06:55:06.347Z,5.70
2022-09-23T06:57:33.155Z,5.80
2022-09-23T06:59:59.770Z,6.00
2022-09-23T07:02:26.701Z,6.00
2022-09-23T07:04:57.035Z,6.10
2022-09-23T07:07:23.636Z,6.20
2022-09-23T07:09:50.257Z,6.40
2022-09-23T07:12:16.819Z,6.50
2022-09-23T07:14:43.391Z,6.70
2022-09-23T07:17:09.952Z,6.80
2022-09-23T07:19:36.597Z,6.90
2022-09-23T07:22:03.213Z,7.10
2022-09-23T07:24:29.782Z,7.20
2022-09-23T07:26:56.410Z,7.40
2022-09-23T07:29:22.978Z,7.60
2022-09-23T07:31:49.661Z,7.90
2022-09-23T07:34:16.360Z,8.00
2022-09-23T07:36:42.960Z,8.30
2022-09-23T07:39:11.055Z,8.50
2022-09-23T07:41:38.181Z,8.70
2022-09-23T07:44:06.008Z,8.90
2022-09-23T07:46:33.978Z,9.10
2022-09-23T07:49:00.698Z,9.30
2022-09-23T07:51:36.033Z,9.40
2022-09-23T07:54:03.521Z,9.50
2022-09-23T07:56:30.194Z,9.70
2022-09-23T07:59:00.334Z,9.80
2022-09-23T08:01:29.141Z,9.80
2022-09-23T08:03:59.654Z,9.90
2022-09-23T08:06:26.547Z,10.10
2022-09-23T08:08:53.668Z,10.20
2022-09-23T08:11:20.348Z,10.40
2022-09-23T08:13:47.736Z,10.60
2022-09-23T08:16:14.357Z,10.70
2022-09-23T08:18:43.578Z,10.90
2022-09-23T08:21:10.188Z,11.00
2022-09-23T08:23:36.792Z,11.20
2022-09-23T08:26:05.210Z,11.40
2022-09-23T08:28:33.741Z,11.50
2022-09-23T08:31:00.724Z,11.80
2022-09-23T08:33:27.574Z,12.00
2022-09-23T08:35:58.359Z,12.00
2022-09-23T08:38:24.948Z,12.20
2022-09-23T08:40:52.431Z,12.20
2022-09-23T08:43:24.064Z,12.20
2022-09-23T08:45:51.976Z,12.40
2022-09-23T08:48:22.495Z,12.50
2022-09-23T08:50:51.980Z,12.60
2022-09-23T08:53:21.765Z,12.70
2022-09-23T08:55:49.379Z,12.80
2022-09-23T08:58:35.155Z,13.00
2022-09-23T09:01:07.985Z,13.10
2022-09-23T09:03:44.621Z,13.20
2022-09-23T09:06:15.609Z,13.30
2022-09-23T09:08:44.431Z,13.40
2022-09-23T09:11:12.155Z,13.60
2022-09-23T09:13:44.798Z,13.70
2022-09-23T09:16:55.567Z,13.70
2022-09-23T09:19:19.564Z,13.60
2022-09-23T09:21:47.903Z,13.70
2022-09-23T09:24:34.416Z,13.80
2022-09-23T09:27:07.838Z,13.80
2022-09-23T09:29:38.933Z,13.80
2022-09-23T09:32:22.252Z,13.90
2022-09-23T09:34:57.498Z,14.00
2022-09-23T09:37:36.687Z,14.10
2022-09-23T09:40:03.675Z,14.10
2022-09-23T09:42:39.824Z,14.20
2022-09-23T09:45:19.749Z,14.30
2022-09-23T09:48:05.749Z,14.40
2022-09-23T09:50:41.552Z,14.50
2022-09-23T09:53:35.754Z,14.40
2022-09-23T09:56:05.566Z,14.40
2022-09-23T09:58:34.529Z,14.40
2022-09-23T10:01:01.737Z,14.40
2022-09-23T10:03:33.520Z,14.40
2022-09-23T10:06:00.301Z,14.40
2022-09-23T10:08:37.570Z,14.30
2022-09-23T10:11:17.597Z,14.30
2022-09-23T10:14:00.277Z,14.40
2022-09-23T10:16:34.233Z,14.50
2022-09-23T10:19:02.261Z,14.60
2022-09-23T10:21:34.690Z,14.70
2022-09-23T10:24:03.038Z,14.80
2022-09-23T10:26:34.272Z,14.90
2022-09-23T10:29:02.241Z,15.00
2022-09-23T10:31:30.095Z,14.90
2022-09-23T10:34:23.156Z,14.90
2022-09-23T10:37:02.399Z,15.00
2022-09-23T10:39:47.781Z,15.10
2022-09-23T10:42:40.744Z,15.20
2022-09-23T10:45:38.647Z,15.30
2022-09-23T10:48:25.048Z,15.20
2022-09-23T10:50:52.864Z,15.40
2022-09-23T10:53:42.022Z,15.50
2022-09-23T10:56:24.380Z,15.50
2022-09-23T10:58:54.182Z,15.60
2022-09-23T11:01:35.666Z,15.60
2022-09-23T11:04:23.882Z,15.60
2022-09-23T11:07:01.603Z,15.80
2022-09-23T11:09:43.562Z,15.80
2022-09-23T11:12:48.920Z,15.80
2022-09-23T11:15:16.497Z,15.70
2022-09-23T11:17:54.101Z,15.70
2022-09-23T11:20:23.716Z,15.70
2022-09-23T11:23:09.376Z,15.80
2022-09-23T11:25:36.183Z,15.70
2022-09-23T11:28:17.933Z,15.70
2022-09-23T11:31:01.362Z,15.60
2022-09-23T11:33:37.590Z,15.60
2022-09-23T11:36:08.884Z,15.70
2022-09-23T11:38:35.823Z,15.90
2022-09-23T11:41:08.936Z,15.90
2022-09-23T11:43:37.010Z,15.90
2022-09-23T11:46:03.722Z,15.90
2022-09-23T11:48:49.384Z,16.00
2022-09-23T11:51:37.407Z,16.00
2022-09-23T11:54:07.397Z,16.00
2022-09-23T11:56:38.466Z,16.20
2022-09-23T11:59:21.914Z,16.10
2022-09-23T12:01:56.687Z,16.00
2022-09-23T12:04:27.890Z,15.70
2022-09-23T12:06:59.590Z,15.60
2022-09-23T12:09:56.583Z,15.80
2022-09-23T12:12:39.299Z,15.90
2022-09-23T12:15:10.231Z,16.00
2022-09-23T12:17:36.792Z,16.00
2022-09-23T12:20:07.662Z,16.00
2022-09-23T12:22:40.152Z,15.90
2022-09-23T12:25:15.793Z,15.90
2022-09-23T12:27:44.687Z,15.70
2022-09-23T12:30:31.614Z,15.90
2022-09-23T12:33:24.610Z,16.00
2022-09-23T12:35:53.332Z,16.00
2022-09-23T12:38:33.028Z,16.10
2022-09-23T12:41:00.304Z,16.00
2022-09-23T12:43:36.217Z,15.90
2022-09-23T12:46:28.633Z,15.90
2022-09-23T12:49:00.446Z,16.00
2022-09-23T12:51:30.949Z,16.20
2022-09-23T12:53:59.695Z,16.20
2022-09-23T12:56:26.572Z,16.20
2022-09-23T12:58:53.178Z,16.30
2022-09-23T13:01:21.008Z,16.40
2022-09-23T13:04:08.403Z,16.30
2022-09-23T13:06:39.279Z,16.60
2022-09-23T13:09:17.547Z,16.80
2022-09-23T13:11:45.806Z,16.80
2022-09-23T13:14:14.615Z,17.00
2022-09-23T13:16:43.592Z,17.00
2022-09-23T13:19:35.389Z,17.00
2022-09-23T13:22:11.328Z,16.90
2022-09-23T13:24:39.547Z,16.90
2022-09-23T13:27:27.568Z,16.60
2022-09-23T13:30:14.429Z,16.60
2022-09-23T13:32:44.933Z,16.90
2022-09-23T13:35:26.456Z,16.90
2022-09-23T13:37:53.486Z,17.10
2022-09-23T13:40:23.678Z,17.20
2022-09-23T13:42:54.681Z,17.10
2022-09-23T13:45:22.695Z,17.00
2022-09-23T13:47:50.367Z,17.10
2022-09-23T13:50:21.347Z,17.10
2022-09-23T13:52:52.591Z,17.10
2022-09-23T13:55:26.451Z,16.90
2022-09-23T13:58:00.079Z,17.10
2022-09-23T14:00:26.856Z,17.00
2022-09-23T14:02:53.423Z,16.70
2022-09-23T14:05:24.148Z,16.80
2022-09-23T14:07:51.260Z,16.90
2022-09-23T14:10:20.701Z,16.80
2022-09-23T14:12:50.958Z,17.10
2022-09-23T14:15:19.341Z,17.40
2022-09-23T14:17:47.512Z,17.50
2022-09-23T14:20:14.636Z,17.70
2022-09-23T14:22:41.216Z,17.30
2022-09-23T14:25:13.252Z,17.40
2022-09-23T14:27:40.642Z,17.50
2022-09-23T14:30:13.569Z,17.60
2022-09-23T14:32:40.437Z,17.80
2022-09-23T14:35:17.678Z,18.10
2022-09-23T14:38:03.550Z,18.10
2022-09-23T14:40:30.207Z,18.80
2022-09-23T14:42:56.820Z,19.30
2022-09-23T14:45:27.853Z,19.50
2022-09-23T14:47:59.519Z,19.30
2022-09-23T14:50:40.297Z,19.70
2022-09-23T14:53:26.863Z,20.10
2022-09-23T14:55:57.210Z,19.40
2022-09-23T14:58:30.469Z,20.00
2022-09-23T15:00:59.393Z,19.50
2022-09-23T15:03:28.194Z,19.80
2022-09-23T15:06:03.132Z,19.70
2022-09-23T15:08:33.335Z,20.00
2022-09-23T15:11:07.635Z,20.90
2022-09-23T15:13:44.129Z,21.20
2022-09-23T15:16:12.469Z,20.90
2022-09-23T15:18:41.470Z,20.80
2022-09-23T15:21:12.860Z,20.70
2022-09-23T15:23:55.593Z,20.80
2022-09-23T15:26:26.329Z,20.70
2022-09-23T15:28:55.954Z,20.00
2022-09-23T15:31:26.399Z,19.90
2022-09-23T15:33:53.175Z,19.50
2022-09-23T15:36:21.020Z,19.10
2022-09-23T15:38:47.907Z,18.30
2022-09-23T15:41:15.263Z,17.60
2022-09-23T15:43:41.849Z,17.30
2022-09-23T15:46:13.039Z,17.50
2022-09-23T15:48:42.362Z,17.30
2022-09-23T15:51:09.805Z,17.10
2022-09-23T15:53:39.477Z,17.00
2022-09-23T15:56:06.347Z,16.80
2022-09-23T15:58:33.159Z,17.20
2022-09-23T16:01:00.878Z,17.50
2022-09-23T16:03:30.735Z,17.90
2022-09-23T16:06:02.350Z,18.10
2022-09-23T16:08:29.175Z,18.50
2022-09-23T16:10:55.914Z,18.70
2022-09-23T16:13:22.941Z,19.00
2022-09-23T16:15:49.913Z,18.80
2022-09-23T16:18:16.499Z,18.40
2022-09-23T16:20:47.658Z,18.40
2022-09-23T16:23:34.272Z,18.80
2022-09-23T16:26:10.190Z,19.00
2022-09-23T16:28:36.914Z,19.40
2022-09-23T16:31:03.567Z,18.80
2022-09-23T16:33:30.153Z,18.50
2022-09-23T16:35:57.693Z,18.00
2022-09-23T16:38:24.372Z,17.70
2022-09-23T16:40:51.274Z,17.40
2022-09-23T16:43:18.558Z,17.00
2022-09-23T16:45:45.813Z,16.80
2022-09-23T16:48:12.554Z,16.60
2022-09-23T16:50:40.200Z,16.30
2022-09-23T16:53:06.796Z,16.20
2022-09-23T16:55:33.360Z,16.00
2022-09-23T16:57:59.945Z,15.80
2022-09-23T17:00:45.326Z,15.70
2022-09-23T17:03:31.164Z,15.60
2022-09-23T17:05:57.894Z,15.40
2022-09-23T17:08:24.543Z,15.30
2022-09-23T17:10:58.571Z,15.10
2022-09-23T17:13:25.938Z,15.00
2022-09-23T17:15:53.050Z,14.90
2022-09-23T17:18:20.635Z,14.60
2022-09-23T17:21:06.335Z,14.50
2022-09-23T17:23:35.032Z,14.20
2022-09-23T17:26:02.367Z,14.00
2022-09-23T17:28:29.013Z,13.80
2022-09-23T17:30:59.519Z,13.80
2022-09-23T17:33:26.768Z,13.80
2022-09-23T17:35:54.509Z,13.70
2022-09-23T17:38:25.600Z,13.70
2022-09-23T17:40:55.631Z,13.70
2022-09-23T17:43:25.605Z,13.60
2022-09-23T17:45:52.773Z,13.50
2022-09-23T17:48:21.604Z,13.50
2022-09-23T17:50:55.634Z,13.40
2022-09-23T17:53:22.522Z,13.50
2022-09-23T17:55:59.102Z,13.30
2022-09-23T17:58:29.613Z,13.10
2022-09-23T18:00:56.761Z,13.10
2022-09-23T18:03:24.148Z,13.00
2022-09-23T18:05:50.732Z,12.80
2022-09-23T18:08:17.331Z,12.70
2022-09-23T18:10:44.007Z,12.60
2022-09-23T18:13:10.655Z,12.40
2022-09-23T18:15:38.067Z,12.40
2022-09-23T18:18:05.213Z,12.30
2022-09-23T18:20:32.291Z,12.20
2022-09-23T18:22:58.972Z,12.10
2022-09-23T18:25:38.547Z,12.10
2022-09-23T18:28:06.110Z,12.00
2022-09-23T18:30:33.411Z,12.00
2022-09-23T18:33:00.031Z,12.00
2022-09-23T18:35:26.703Z,11.90
2022-09-23T18:37:53.386Z,11.90
2022-09-23T18:40:20.040Z,11.90
2022-09-23T18:42:47.614Z,11.80
2022-09-23T18:45:14.215Z,11.70
2022-09-23T18:47:59.484Z,11.60
2022-09-23T18:50:42.889Z,11.60
2022-09-23T18:53:10.085Z,11.70
2022-09-23T18:55:36.790Z,11.60
2022-09-23T18:58:03.536Z,11.50
2022-09-23T19:00:30.237Z,11.40
2022-09-23T19:02:57.596Z,11.40
2022-09-23T19:05:24.196Z,11.30
2022-09-23T19:07:51.247Z,11.30
2022-09-23T19:10:19.080Z,11.30
2022-09-23T19:12:46.579Z,11.10
2022-09-23T19:15:14.136Z,11.10
2022-09-23T19:17:40.696Z,11.00
2022-09-23T19:20:07.648Z,10.90
2022-09-23T19:22:34.404Z,11.00
2022-09-23T19:25:00.992Z,10.90
2022-09-23T19:27:27.575Z,10.90
2022-09-23T19:29:54.914Z,10.90
2022-09-23T19:32:24.397Z,11.00
2022-09-23T19:34:50.981Z,11.00
2022-09-23T19:37:17.603Z,11.00
2022-09-23T19:39:44.655Z,11.00
2022-09-23T19:42:11.225Z,11.00
2022-09-23T19:44:39.125Z,10.80
2022-09-23T19:47:05.845Z,10.70
2022-09-23T19:49:32.960Z,10.70
2022-09-23T19:52:00.290Z,10.60
2022-09-23T19:54:27.491Z,10.50
2022-09-23T19:56:54.542Z,10.50
2022-09-23T19:59:21.199Z,10.40
2022-09-23T20:01:48.254Z,10.30
2022-09-23T20:04:15.794Z,10.20
2022-09-23T20:06:42.957Z,10.10
2022-09-23T20:09:09.886Z,10.20
2022-09-23T20:11:36.542Z,10.20
2022-09-23T20:14:04.880Z,10.10
2022-09-23T20:16:32.833Z,10.10
2022-09-23T20:19:00.137Z,10.00
2022-09-23T20:21:28.075Z,10.00
2022-09-23T20:23:55.027Z,10.00
2022-09-23T20:26:40.307Z,10.10
2022-09-23T20:29:08.747Z,10.00
2022-09-23T20:31:35.744Z,10.00
2022-09-23T20:34:05.513Z,10.10
2022-09-23T20:36:33.206Z,10.10
2022-09-23T20:39:00.844Z,10.10
2022-09-23T20:41:27.766Z,10.10
2022-09-23T20:43:54.746Z,10.20
2022-09-23T20:46:23.319Z,10.10
2022-09-23T20:48:50.354Z,10.00
2022-09-23T20:51:17.729Z,10.00
2022-09-23T20:53:45.710Z,10.00
2022-09-23T20:56:13.854Z,10.10
2022-09-23T20:58:40.438Z,10.00
2022-09-23T21:01:10.583Z,9.90
2022-09-23T21:03:39.403Z,9.90
2022-09-23T21:06:06.901Z,9.90
2022-09-23T21:08:34.627Z,10.00
2022-09-23T21:11:03.315Z,10.00
2022-09-23T21:13:30.691Z,10.00
2022-09-23T21:16:04.080Z,10.00
2022-09-23T21:18:30.873Z,9.90
2022-09-23T21:20:57.799Z,9.90
2022-09-23T21:23:26.125Z,9.80
2022-09-23T21:25:53.449Z,9.80
2022-09-23T21:28:20.034Z,9.80
2022-09-23T21:30:51.677Z,9.80
2022-09-23T21:33:18.592Z,9.80
2022-09-23T21:35:45.188Z,9.90
2022-09-23T21:38:11.748Z,9.90
2022-09-23T21:40:56.728Z,10.00
2022-09-23T21:43:27.535Z,10.10
2022-09-23T21:45:59.314Z,10.20
2022-09-23T21:48:29.679Z,10.20
2022-09-23T21:51:00.565Z,10.20
2022-09-23T21:53:29.372Z,10.20
2022-09-23T21:56:14.797Z,10.30
2022-09-23T21:58:43.512Z,10.30
2022-09-23T22:01:12.221Z,10.30
2022-09-23T22:03:39.310Z,10.30
2022-09-23T22:06:07.648Z,10.30
2022-09-23T22:08:36.786Z,10.30
2022-09-23T22:11:04.328Z,10.20
2022-09-23T22:13:30.890Z,10.20
2022-09-23T22:15:59.990Z,10.20
2022-09-23T22:18:26.762Z,10.30
2022-09-23T22:20:55.087Z,10.30
2022-09-23T22:23:21.772Z,10.30
2022-09-23T22:25:48.332Z,10.30
2022-09-23T22:28:33.323Z,10.20
2022-09-23T22:31:18.666Z,10.20
2022-09-23T22:33:45.244Z,10.20
2022-09-23T22:36:12.838Z,10.10
2022-09-23T22:38:41.483Z,10.10
2022-09-23T22:41:08.129Z,10.00
2022-09-23T22:43:34.721Z,9.90
2022-09-23T22:46:01.304Z,9.90
2022-09-23T22:48:27.917Z,9.90
2022-09-23T22:50:55.240Z,9.90
2022-09-23T22:53:22.177Z,10.00
2022-09-23T22:55:56.967Z,10.00
2022-09-23T22:58:32.088Z,10.10
2022-09-23T23:00:59.459Z,10.10
2022-09-23T23:03:30.395Z,10.10
2022-09-23T23:05:59.959Z,10.10
2022-09-23T23:08:27.682Z,10.20
2022-09-23T23:10:55.051Z,10.20
2022-09-23T23:13:22.191Z,10.30
2022-09-23T23:15:49.080Z,10.30
2022-09-23T23:18:15.710Z,10.30
2022-09-23T23:20:42.669Z,10.20
2022-09-23T23:23:09.292Z,10.10
2022-09-23T23:25:35.883Z,10.10
2022-09-23T23:28:05.511Z,10.10
2022-09-23T23:30:32.814Z,10.10
2022-09-23T23:32:59.383Z,10.10
2022-09-23T23:35:25.940Z,10.10
2022-09-23T23:37:52.502Z,10.20
2022-09-23T23:40:22.603Z,10.20
2022-09-23T23:42:49.279Z,10.20
2022-09-23T23:45:16.616Z,10.20
2022-09-23T23:47:43.856Z,10.30
2022-09-23T23:50:10.796Z,10.30
2022-09-23T23:52:37.355Z,10.30
2022-09-23T23:55:04.120Z,10.30
2022-09-23T23:57:30.704Z,10.30
2022-09-23T23:59:57.271Z,10.30
